Time;durP1;ratioP1;P1;durP2;ratioP2;P2;SDS_P1;SDS_P2;PMS_P1;PMS_P2;Temp;Humidity;BMP_temperature;BMP_pressure;BME280_temperature;BME280_humidity;BME280_pressure;Samples;Min_cycle;Max_cycle;Signal;HPM_P1;HPM_P2
2021/01/14 00:01:01;;;;;;;10.00;6.47;;;-0.10;99.90;;;;;;4905259;28;20666;-72
2021/01/14 00:03:23;;;;;;;10.50;6.63;;;-0.10;99.90;;;;;;4899759;28;20623;-71
2021/01/14 00:05:45;;;;;;;12.47;6.20;;;-0.10;99.90;;;;;;4909070;28;20621;-72
2021/01/14 00:08:10;;;;;;;9.70;7.20;;;-0.10;99.90;;;;;;4915025;28;21241;-70
2021/01/14 00:10:33;;;;;;;12.73;8.10;;;0.60;99.90;;;;;;4910446;28;21012;-71
2021/01/14 00:12:55;;;;;;;12.57;8.37;;;-0.20;99.90;;;;;;4897195;28;21032;-74
2021/01/14 00:15:18;;;;;;;11.37;7.37;;;-0.20;99.90;;;;;;4907462;28;20652;-71
2021/01/14 00:17:41;;;;;;;9.83;7.67;;;-0.20;99.90;;;;;;4908221;28;20962;-72
2021/01/14 00:20:05;;;;;;;10.67;6.63;;;-0.20;99.90;;;;;;4908041;28;20614;-71
2021/01/14 00:22:27;;;;;;;12.87;8.30;;;-0.20;99.90;;;;;;4897304;28;20594;-72
2021/01/14 00:24:50;;;;;;;12.50;8.10;;;-0.30;99.90;;;;;;4897319;28;20667;-71
2021/01/14 00:27:13;;;;;;;12.87;8.27;;;-0.30;99.90;;;;;;4928073;28;20669;-71
2021/01/14 00:29:35;;;;;;;11.17;7.03;;;-0.30;99.90;;;;;;4879212;28;20654;-70
2021/01/14 00:31:57;;;;;;;10.90;6.90;;;-0.40;99.90;;;;;;4898251;28;20621;-72
2021/01/14 00:34:19;;;;;;;11.73;8.00;;;-0.30;99.90;;;;;;4916626;28;20628;-72
2021/01/14 00:39:33;;;;;;;10.67;7.53;;;-0.40;99.90;;;;;;4852946;28;20608;-71
2021/01/14 00:41:57;;;;;;;12.20;6.40;;;-0.40;99.90;;;;;;4886455;28;20625;-75
2021/01/14 00:44:19;;;;;;;9.37;6.37;;;-0.40;99.90;;;;;;4904830;28;20634;-72
2021/01/14 00:46:41;;;;;;;10.90;5.97;;;-0.40;99.90;;;;;;4913630;28;20995;-71
2021/01/14 00:49:03;;;;;;;10.57;5.83;;;-0.30;99.90;;;;;;4914075;28;20649;-70
2021/01/14 00:51:33;;;;;;;10.43;6.40;;;-0.30;99.90;;;;;;4901374;28;20609;-71
2021/01/14 00:53:55;;;;;;;8.87;6.20;;;-0.30;99.90;;;;;;4905405;28;20617;-75
2021/01/14 00:56:17;;;;;;;8.80;6.07;;;-0.20;99.90;;;;;;4914767;28;20674;-71
2021/01/14 00:58:40;;;;;;;10.07;6.17;;;-0.20;99.90;;;;;;4911251;28;20654;-72
2021/01/14 01:01:02;;;;;;;8.50;5.60;;;-0.20;99.90;;;;;;4905587;28;20613;-71
2021/01/14 01:03:24;;;;;;;7.87;5.70;;;-0.20;99.90;;;;;;4914063;28;20781;-71
2021/01/14 01:05:46;;;;;;;8.53;5.77;;;-0.10;99.90;;;;;;4913212;28;20632;-71
2021/01/14 01:08:08;;;;;;;11.17;6.03;;;-0.20;99.90;;;;;;4893841;28;21183;-71
2021/01/14 01:10:30;;;;;;;7.97;5.60;;;-0.20;99.90;;;;;;4914735;28;20609;-72
2021/01/14 01:12:53;;;;;;;9.40;6.20;;;0.00;99.90;;;;;;4915932;28;20585;-71
2021/01/14 01:15:16;;;;;;;6.83;5.00;;;-0.10;99.90;;;;;;4910196;28;20641;-70
2021/01/14 01:17:38;;;;;;;10.47;5.53;;;-0.10;99.90;;;;;;4894940;28;20597;-71
2021/01/14 01:20:00;;;;;;;8.63;5.13;;;-0.10;99.90;;;;;;4911833;28;20661;-72
2021/01/14 01:22:22;;;;;;;7.93;5.37;;;-0.10;99.90;;;;;;4915877;28;20585;-71
2021/01/14 01:24:44;;;;;;;10.20;6.57;;;-0.10;99.90;;;;;;4914189;28;20654;-71
2021/01/14 01:27:06;;;;;;;7.20;5.60;;;-0.10;99.90;;;;;;4902974;28;20695;-71
2021/01/14 01:29:28;;;;;;;9.10;6.93;;;-0.20;99.90;;;;;;4896867;28;20714;-73
2021/01/14 01:31:51;;;;;;;8.23;5.70;;;-0.10;99.90;;;;;;4907735;28;20662;-72
2021/01/14 01:34:14;;;;;;;9.13;6.03;;;-0.10;99.90;;;;;;4877846;28;20711;-72
2021/01/14 01:36:36;;;;;;;7.27;5.00;;;-0.20;99.90;;;;;;4911758;28;20625;-71
2021/01/14 01:38:58;;;;;;;7.93;5.80;;;-0.20;99.90;;;;;;4902972;28;20613;-72
2021/01/14 01:41:20;;;;;;;10.63;5.83;;;-0.10;99.90;;;;;;4890540;28;20634;-71
2021/01/14 01:43:42;;;;;;;8.13;5.80;;;-0.10;99.90;;;;;;4905794;28;20625;-71
2021/01/14 01:46:06;;;;;;;6.40;4.80;;;-0.10;99.90;;;;;;4899505;28;21026;-71
2021/01/14 01:48:31;;;;;;;7.07;5.60;;;-0.20;99.90;;;;;;4899933;28;20670;-71
2021/01/14 01:50:56;;;;;;;8.67;6.03;;;-0.20;99.90;;;;;;4914883;28;21137;-71
2021/01/14 01:53:18;;;;;;;8.13;5.40;;;-0.10;99.90;;;;;;4904519;28;20660;-71
2021/01/14 01:55:44;;;;;;;7.13;5.33;;;-0.10;99.90;;;;;;4904823;28;20999;-71
2021/01/14 01:58:06;;;;;;;7.13;5.37;;;-0.10;99.90;;;;;;4914446;28;20616;-72
2021/01/14 02:00:29;;;;;;;9.67;5.97;;;-0.10;99.90;;;;;;4901631;28;20613;-72
2021/01/14 02:02:53;;;;;;;9.23;6.43;;;-0.10;99.90;;;;;;4895957;28;20619;-71
2021/01/14 02:05:15;;;;;;;8.53;6.03;;;-0.10;99.90;;;;;;4896961;28;20618;-71
2021/01/14 02:07:51;;;;;;;6.20;5.13;;;-0.10;99.90;;;;;;4906761;28;20675;-71
2021/01/14 02:10:22;;;;;;;11.80;6.37;;;-0.10;99.90;;;;;;4900490;28;20593;-71
2021/01/14 02:12:55;;;;;;;11.67;7.87;;;-0.10;99.90;;;;;;4900613;28;21184;-72
2021/01/14 02:15:17;;;;;;;8.83;6.20;;;-0.10;99.90;;;;;;4912168;28;20706;-71
2021/01/14 02:17:39;;;;;;;10.13;6.43;;;-0.10;99.90;;;;;;4895608;28;20936;-72
2021/01/14 02:20:03;;;;;;;8.37;5.57;;;-0.10;99.90;;;;;;4895989;28;20609;-71
2021/01/14 02:22:29;;;;;;;5.93;5.23;;;-0.10;99.90;;;;;;4912859;28;20650;-72
2021/01/14 02:25:00;;;;;;;8.63;6.40;;;0.00;99.90;;;;;;4894811;28;20621;-72
2021/01/14 02:27:25;;;;;;;9.47;6.10;;;0.00;99.90;;;;;;4901572;28;21122;-71
2021/01/14 02:29:48;;;;;;;6.57;5.33;;;0.00;99.90;;;;;;4895379;28;20661;-71
2021/01/14 02:32:16;;;;;;;9.57;5.53;;;0.00;99.90;;;;;;4905795;28;21214;-71
2021/01/14 02:34:38;;;;;;;5.33;4.37;;;0.00;99.90;;;;;;4895162;28;20971;-71
2021/01/14 02:37:00;;;;;;;7.47;5.67;;;0.00;99.90;;;;;;4908644;28;20242;-72
2021/01/14 02:39:22;;;;;;;6.63;4.50;;;0.00;99.90;;;;;;4908158;28;20626;-70
2021/01/14 02:41:44;;;;;;;5.87;5.10;;;0.00;99.90;;;;;;4900583;28;20612;-72
2021/01/14 02:44:07;;;;;;;6.87;4.77;;;0.10;99.90;;;;;;4914087;28;20609;-72
2021/01/14 02:46:31;;;;;;;9.13;5.07;;;0.00;99.90;;;;;;4894555;28;20625;-72
2021/01/14 02:49:01;;;;;;;7.70;5.50;;;0.00;99.90;;;;;;4913636;28;20660;-71
2021/01/14 02:51:33;;;;;;;7.20;5.00;;;0.00;99.90;;;;;;4904983;28;20609;-71
2021/01/14 02:53:55;;;;;;;6.67;4.77;;;0.00;99.90;;;;;;4912133;28;20593;-74
2021/01/14 02:56:20;;;;;;;8.20;5.10;;;0.00;99.90;;;;;;4901066;28;21174;-70
2021/01/14 02:58:42;;;;;;;5.97;4.93;;;0.00;99.90;;;;;;4908963;28;20617;-71
2021/01/14 03:01:05;;;;;;;5.83;5.00;;;0.00;99.90;;;;;;4904493;28;20687;-71
2021/01/14 03:03:28;;;;;;;7.67;5.00;;;-0.10;99.90;;;;;;4915429;28;20646;-71
2021/01/14 03:05:50;;;;;;;8.40;5.33;;;-0.10;99.90;;;;;;4898754;28;20674;-71
2021/01/14 03:08:12;;;;;;;8.27;5.97;;;0.00;99.90;;;;;;4898450;28;20621;-71
2021/01/14 03:10:34;;;;;;;6.37;4.63;;;0.00;99.90;;;;;;4909878;28;20670;-71
2021/01/14 03:12:56;;;;;;;6.83;5.23;;;0.00;99.90;;;;;;4898298;28;20590;-72
2021/01/14 03:15:19;;;;;;;8.23;5.20;;;0.00;99.90;;;;;;4908977;28;20715;-71
2021/01/14 03:17:42;;;;;;;6.00;4.80;;;0.00;99.90;;;;;;4917071;28;20917;-72
2021/01/14 03:20:06;;;;;;;7.47;5.57;;;0.00;99.90;;;;;;4910924;28;20681;-71
2021/01/14 03:22:28;;;;;;;11.53;7.23;;;0.00;99.90;;;;;;4916223;28;20593;-72
2021/01/14 03:24:50;;;;;;;9.37;7.33;;;0.00;99.90;;;;;;4897909;28;20242;-71
2021/01/14 03:27:12;;;;;;;7.43;6.13;;;0.00;99.90;;;;;;4898072;28;20690;-70
2021/01/14 03:29:34;;;;;;;10.87;6.43;;;-0.10;99.90;;;;;;4909113;28;21286;-71
2021/01/14 03:32:00;;;;;;;8.33;6.13;;;0.00;99.90;;;;;;4898054;28;21169;-72
2021/01/14 03:34:23;;;;;;;6.93;5.20;;;0.00;99.90;;;;;;4916691;28;20592;-71
2021/01/14 03:39:26;;;;;;;8.53;6.43;;;0.00;99.90;;;;;;4902499;28;21003;-71
2021/01/14 03:41:48;;;;;;;6.13;5.53;;;0.10;99.90;;;;;;4917729;28;20638;-71
2021/01/14 03:44:10;;;;;;;8.43;6.77;;;0.00;99.90;;;;;;4916627;28;20630;-72
2021/01/14 03:46:32;;;;;;;7.77;5.90;;;0.20;99.90;;;;;;4903293;28;21103;-71
2021/01/14 03:48:54;;;;;;;10.63;6.60;;;0.10;99.90;;;;;;4897696;28;20629;-73
2021/01/14 03:51:18;;;;;;;7.97;6.17;;;0.00;99.90;;;;;;4896812;28;20617;-72
2021/01/14 03:53:40;;;;;;;8.70;6.67;;;0.20;99.90;;;;;;4900149;28;20602;-72
2021/01/14 03:56:03;;;;;;;7.43;6.00;;;0.00;99.90;;;;;;4899585;28;21021;-72
2021/01/14 03:58:25;;;;;;;8.70;6.63;;;0.00;99.90;;;;;;4899019;28;20598;-72
2021/01/14 04:00:47;;;;;;;9.03;7.13;;;0.00;99.90;;;;;;4904854;28;20614;-71
2021/01/14 04:03:09;;;;;;;8.47;6.60;;;0.00;99.90;;;;;;4896599;28;20635;-72
2021/01/14 04:05:31;;;;;;;11.10;8.57;;;0.00;99.90;;;;;;4896724;28;21219;-72
2021/01/14 04:07:54;;;;;;;9.20;7.57;;;0.00;99.90;;;;;;4912372;28;20670;-72
2021/01/14 04:10:16;;;;;;;9.53;6.97;;;0.00;99.90;;;;;;4908722;28;20653;-71
2021/01/14 04:12:38;;;;;;;10.70;7.67;;;0.00;99.90;;;;;;4913270;28;20617;-71
2021/01/14 04:15:00;;;;;;;8.43;6.60;;;0.00;99.90;;;;;;4903991;28;20652;-72
2021/01/14 04:17:22;;;;;;;8.37;6.20;;;0.00;99.90;;;;;;4915459;28;20654;-71
2021/01/14 04:19:44;;;;;;;6.40;5.10;;;0.00;99.90;;;;;;4916979;28;20646;-71
2021/01/14 04:22:06;;;;;;;7.53;5.00;;;0.00;99.90;;;;;;4910964;28;20620;-72
2021/01/14 04:24:36;;;;;;;7.67;5.40;;;0.00;99.90;;;;;;4897328;28;20647;-73
2021/01/14 04:26:59;;;;;;;7.47;5.50;;;0.10;99.90;;;;;;4902754;27;20699;-72
2021/01/14 04:29:21;;;;;;;7.73;5.57;;;0.20;99.90;;;;;;4900940;28;20290;-72
2021/01/14 04:31:43;;;;;;;9.43;5.27;;;0.10;99.90;;;;;;4897187;28;20173;-72
2021/01/14 04:34:05;;;;;;;6.57;5.17;;;0.10;99.90;;;;;;4908465;28;20731;-72
2021/01/14 04:36:27;;;;;;;9.30;6.90;;;0.10;99.90;;;;;;4915047;28;21290;-73
2021/01/14 04:38:49;;;;;;;6.13;5.53;;;0.10;99.90;;;;;;4898567;28;20671;-72
2021/01/14 04:41:15;;;;;;;6.97;5.17;;;0.20;99.90;;;;;;4896849;28;20643;-72
2021/01/14 04:43:38;;;;;;;6.40;4.93;;;0.10;99.90;;;;;;4910720;28;21177;-72
2021/01/14 04:46:04;;;;;;;7.30;6.07;;;0.10;99.90;;;;;;4912801;28;21084;-72
2021/01/14 04:48:27;;;;;;;6.23;5.43;;;0.10;99.90;;;;;;4912714;28;20701;-72
2021/01/14 04:50:50;;;;;;;7.43;5.03;;;0.20;99.90;;;;;;4911276;28;20610;-72
2021/01/14 04:53:14;;;;;;;6.77;5.13;;;0.00;99.90;;;;;;4906313;28;20721;-72
2021/01/14 04:55:43;;;;;;;7.20;5.63;;;0.00;99.90;;;;;;4901779;28;20618;-72
2021/01/14 04:58:07;;;;;;;8.80;5.93;;;0.00;99.90;;;;;;4900849;28;20624;-72
2021/01/14 05:00:31;;;;;;;9.83;6.33;;;0.20;99.90;;;;;;4910957;28;20654;-72
2021/01/14 05:02:57;;;;;;;14.33;8.53;;;0.00;99.90;;;;;;4899612;28;20612;-72
2021/01/14 05:05:23;;;;;;;15.70;9.60;;;0.00;99.90;;;;;;4914377;28;20624;-72
2021/01/14 05:07:48;;;;;;;12.60;8.57;;;0.00;99.90;;;;;;4896471;28;20242;-72
2021/01/14 05:10:13;;;;;;;19.90;11.30;;;-0.10;99.90;;;;;;4912992;28;20208;-72
2021/01/14 05:12:35;;;;;;;18.17;9.80;;;-0.10;99.90;;;;;;4915864;28;20650;-73
2021/01/14 05:14:58;;;;;;;17.53;9.90;;;-0.20;99.90;;;;;;4907545;28;20641;-73
2021/01/14 05:17:20;;;;;;;18.63;10.17;;;-0.20;99.90;;;;;;4896323;28;20250;-72
2021/01/14 05:19:42;;;;;;;12.93;8.13;;;-0.30;99.90;;;;;;4904444;28;20662;-72
2021/01/14 05:22:07;;;;;;;13.47;7.90;;;-0.30;99.90;;;;;;4898169;28;20602;-72
2021/01/14 05:24:29;;;;;;;11.80;7.70;;;-0.30;99.90;;;;;;4896887;28;20667;-72
2021/01/14 05:26:51;;;;;;;11.97;6.53;;;-0.30;99.90;;;;;;4900607;28;20181;-72
2021/01/14 05:29:15;;;;;;;8.90;5.83;;;-3.00;99.90;;;;;;4905524;28;21157;-72
2021/01/14 05:31:38;;;;;;;8.20;5.57;;;-0.20;99.90;;;;;;4913869;28;20678;-72
2021/01/14 05:34:00;;;;;;;8.27;5.77;;;-0.30;99.90;;;;;;4909518;28;20200;-72
2021/01/14 05:36:22;;;;;;;11.40;6.93;;;-0.30;99.90;;;;;;4907503;28;20605;-72
2021/01/14 05:38:49;;;;;;;12.07;7.73;;;-0.20;99.90;;;;;;4904547;28;20625;-72
2021/01/14 05:41:24;;;;;;;10.17;7.10;;;-0.30;99.90;;;;;;4909411;28;20653;-72
2021/01/14 05:43:54;;;;;;;13.60;7.70;;;-0.30;99.90;;;;;;4895355;28;20629;-72
2021/01/14 05:46:17;;;;;;;11.43;7.17;;;-0.20;99.90;;;;;;4899705;28;20670;-72
2021/01/14 05:48:40;;;;;;;12.33;8.37;;;-0.30;99.90;;;;;;4915418;28;20669;-73
2021/01/14 05:51:18;;;;;;;10.57;7.17;;;-0.30;99.90;;;;;;4914508;28;20617;-72
2021/01/14 05:53:56;;;;;;;14.10;8.93;;;-0.30;99.90;;;;;;4898842;28;20727;-73
2021/01/14 05:56:25;;;;;;;13.17;8.60;;;-0.40;99.90;;;;;;4913424;28;21072;-72
2021/01/14 05:58:49;;;;;;;10.47;7.33;;;-0.40;99.90;;;;;;4886008;28;21194;-73
2021/01/14 06:01:12;;;;;;;11.70;7.80;;;-0.40;99.90;;;;;;4901742;28;21161;-73
2021/01/14 06:03:34;;;;;;;11.73;6.93;;;-0.40;99.90;;;;;;4877180;28;20255;-72
2021/01/14 06:05:58;;;;;;;10.10;7.07;;;-0.40;99.90;;;;;;4896389;28;20617;-73
2021/01/14 06:08:24;;;;;;;10.50;6.90;;;-0.40;99.90;;;;;;4907764;28;20945;-72
2021/01/14 06:10:46;;;;;;;11.03;6.87;;;-0.40;99.90;;;;;;4894535;28;20669;-72
2021/01/14 06:13:09;;;;;;;11.93;7.17;;;-0.40;99.90;;;;;;4912360;28;20674;-71
2021/01/14 06:15:31;;;;;;;9.57;6.90;;;-0.40;99.90;;;;;;4895261;28;20204;-71
2021/01/14 06:17:54;;;;;;;12.23;8.00;;;-0.40;99.90;;;;;;4882334;28;20617;-71
2021/01/14 06:20:17;;;;;;;12.40;7.83;;;-0.30;99.90;;;;;;4915166;28;20184;-71
2021/01/14 06:22:43;;;;;;;12.50;8.23;;;-0.30;99.90;;;;;;4912904;28;20666;-71
2021/01/14 06:25:07;;;;;;;10.67;6.60;;;-0.20;99.90;;;;;;4913593;28;20617;-72
2021/01/14 06:27:29;;;;;;;11.73;7.93;;;-0.30;99.90;;;;;;4917019;28;20679;-72
2021/01/14 06:30:00;;;;;;;12.90;8.00;;;-0.20;99.90;;;;;;4915866;28;20228;-72
2021/01/14 06:32:23;;;;;;;13.10;8.50;;;-0.10;99.90;;;;;;4881789;28;20621;-72
2021/01/14 06:34:47;;;;;;;11.10;7.70;;;-0.20;99.90;;;;;;4898808;28;20235;-72
2021/01/14 06:37:12;;;;;;;12.33;8.43;;;-0.10;99.90;;;;;;4898904;28;20254;-72
2021/01/14 06:39:40;;;;;;;11.20;7.37;;;-0.10;99.90;;;;;;4899262;28;20246;-72
2021/01/14 06:42:15;;;;;;;12.40;7.10;;;0.20;99.90;;;;;;4898852;28;20582;-72
2021/01/14 06:44:46;;;;;;;11.67;7.73;;;-0.10;99.90;;;;;;4912713;28;20617;-72
2021/01/14 06:47:28;;;;;;;14.57;7.77;;;0.00;99.90;;;;;;4907485;28;20180;-72
2021/01/14 06:50:12;;;;;;;12.87;7.40;;;0.00;99.90;;;;;;4906097;28;20738;-71
2021/01/14 06:52:42;;;;;;;13.33;8.27;;;0.10;99.90;;;;;;4897659;28;21225;-72
2021/01/14 06:55:06;;;;;;;16.23;9.27;;;0.10;99.90;;;;;;4896719;28;20675;-72
2021/01/14 06:57:36;;;;;;;18.57;8.33;;;0.10;99.90;;;;;;4898711;28;20602;-71
2021/01/14 06:59:58;;;;;;;17.27;9.97;;;0.10;99.90;;;;;;4907956;28;20646;-73
2021/01/14 07:02:54;;;;;;;16.97;9.70;;;0.10;99.90;;;;;;4911730;28;20666;-72
2021/01/14 07:05:28;;;;;;;15.87;8.97;;;0.20;99.90;;;;;;4902101;28;20633;-72
2021/01/14 07:08:01;;;;;;;14.13;8.63;;;0.20;99.90;;;;;;4898801;28;21005;-73
2021/01/14 07:10:27;;;;;;;14.93;8.73;;;0.20;99.90;;;;;;4904648;28;20649;-72
2021/01/14 07:12:52;;;;;;;14.13;8.30;;;0.20;99.90;;;;;;4898682;28;20643;-72
2021/01/14 07:15:16;;;;;;;16.47;9.33;;;0.30;99.90;;;;;;4903972;28;21231;-72
2021/01/14 07:17:40;;;;;;;16.43;9.97;;;0.30;99.90;;;;;;4914618;28;20609;-72
2021/01/14 07:20:04;;;;;;;13.37;7.37;;;0.30;99.90;;;;;;4915356;28;20237;-71
2021/01/14 07:22:26;;;;;;;12.67;8.20;;;0.40;99.90;;;;;;4898788;28;20670;-71
2021/01/14 07:24:49;;;;;;;13.03;7.20;;;0.40;99.90;;;;;;4906063;28;20958;-72
2021/01/14 07:27:12;;;;;;;8.77;6.13;;;0.30;99.90;;;;;;4896189;28;20262;-72
2021/01/14 07:29:43;;;;;;;10.13;6.23;;;0.40;99.90;;;;;;4880185;28;20315;-72
2021/01/14 07:32:06;;;;;;;12.60;8.20;;;0.40;99.90;;;;;;4898221;28;20634;-72
2021/01/14 07:34:39;;;;;;;14.70;9.00;;;0.30;99.90;;;;;;4897071;28;20607;-72
2021/01/14 07:37:01;;;;;;;16.90;8.23;;;0.30;99.90;;;;;;4897117;28;20651;-72
2021/01/14 07:39:45;;;;;;;13.43;8.17;;;0.30;99.90;;;;;;4912866;28;20200;-71
2021/01/14 07:42:07;;;;;;;14.57;8.90;;;0.30;99.90;;;;;;4898034;28;20203;-72
2021/01/14 07:44:30;;;;;;;15.43;10.50;;;0.20;99.40;;;;;;4898189;28;20699;-72
2021/01/14 07:46:52;;;;;;;11.03;7.20;;;0.20;99.10;;;;;;4896382;28;20977;-71
2021/01/14 07:49:27;;;;;;;10.07;6.33;;;0.30;99.10;;;;;;4880072;28;20201;-72
2021/01/14 07:51:50;;;;;;;10.77;6.70;;;0.40;94.20;;;;;;4896806;28;20632;-72
2021/01/14 07:54:12;;;;;;;9.90;5.77;;;0.60;94.30;;;;;;4897707;28;20581;-72
2021/01/14 07:56:48;;;;;;;9.07;6.10;;;0.50;94.90;;;;;;4898277;28;20667;-73
2021/01/14 07:59:11;;;;;;;7.30;5.47;;;0.70;96.20;;;;;;4913049;28;20577;-72
2021/01/14 08:02:01;;;;;;;12.30;7.00;;;0.80;96.30;;;;;;4902411;28;20678;-71
2021/01/14 08:04:23;;;;;;;10.07;6.00;;;1.00;91.50;;;;;;4917300;28;20180;-72
2021/01/14 08:06:45;;;;;;;8.27;6.00;;;1.20;75.70;;;;;;4908136;28;20628;-72
2021/01/14 08:09:08;;;;;;;6.87;4.47;;;1.20;75.90;;;;;;4911535;28;21182;-72
2021/01/14 08:11:31;;;;;;;9.73;5.33;;;1.20;66.40;;;;;;4885737;28;20259;-72
2021/01/14 08:14:07;;;;;;;7.30;5.03;;;1.20;67.20;;;;;;4909330;28;20660;-71
2021/01/14 08:16:34;;;;;;;6.00;4.57;;;1.30;62.90;;;;;;4897291;28;20188;-72
2021/01/14 08:19:30;;;;;;;9.23;5.37;;;1.20;61.80;;;;;;4896435;28;20675;-72
2021/01/14 08:22:13;;;;;;;11.30;7.53;;;1.30;63.60;;;;;;4897333;28;20562;-72
2021/01/14 08:24:41;;;;;;;13.73;7.77;;;1.20;61.00;;;;;;4896319;28;20242;-72
2021/01/14 08:27:05;;;;;;;14.10;8.87;;;1.30;62.00;;;;;;4895571;28;20610;-72
2021/01/14 08:29:45;;;;;;;15.90;9.13;;;1.30;64.60;;;;;;4899989;28;20232;-72
2021/01/14 08:32:28;;;;;;;16.03;9.97;;;1.40;66.00;;;;;;4907405;28;20203;-72
2021/01/14 08:34:54;;;;;;;14.33;8.70;;;1.40;67.60;;;;;;4903666;28;20975;-74
2021/01/14 08:37:28;;;;;;;12.43;7.80;;;1.50;69.80;;;;;;4911367;28;20189;-73
2021/01/14 08:39:53;;;;;;;16.47;9.47;;;1.70;69.90;;;;;;4912902;28;20208;-72
2021/01/14 08:42:15;;;;;;;15.03;7.90;;;1.80;71.20;;;;;;4913120;28;20194;-73
2021/01/14 08:44:41;;;;;;;10.10;6.20;;;1.90;70.80;;;;;;4910015;28;20192;-74
2021/01/14 08:47:03;;;;;;;6.90;4.83;;;2.00;69.40;;;;;;4910333;28;20540;-73
2021/01/14 08:49:37;;;;;;;9.67;6.43;;;2.20;58.80;;;;;;4906933;28;20669;-72
2021/01/14 08:52:03;;;;;;;11.77;7.07;;;2.30;49.80;;;;;;4915041;28;20176;-73
2021/01/14 08:54:25;;;;;;;10.67;6.77;;;2.40;41.60;;;;;;4889770;28;20193;-73
2021/01/14 08:56:47;;;;;;;5.77;4.17;;;2.50;36.70;;;;;;4900782;28;20643;-74
2021/01/14 08:59:14;;;;;;;5.10;3.97;;;2.40;28.60;;;;;;4892402;28;20617;-74
2021/01/14 09:01:36;;;;;;;7.87;5.13;;;2.40;23.30;;;;;;4907993;28;20266;-73
2021/01/14 09:03:58;;;;;;;8.23;5.20;;;2.30;20.10;;;;;;4901151;28;20200;-73
2021/01/14 09:06:29;;;;;;;7.20;4.23;;;2.20;20.10;;;;;;4914955;28;20658;-74
2021/01/14 09:08:54;;;;;;;9.97;6.37;;;2.20;20.70;;;;;;4902651;28;20181;-74
2021/01/14 09:11:23;;;;;;;7.80;5.57;;;2.30;19.90;;;;;;4902896;28;20228;-75
2021/01/14 09:13:46;;;;;;;8.00;5.80;;;2.30;27.00;;;;;;4918603;28;20559;-74
2021/01/14 09:16:10;;;;;;;9.47;5.73;;;2.40;21.10;;;;;;4907286;28;20196;-75
2021/01/14 09:18:34;;;;;;;8.27;5.87;;;2.60;25.90;;;;;;4905710;28;20234;-74
2021/01/14 09:20:56;;;;;;;5.10;4.33;;;2.60;26.50;;;;;;4886671;28;20196;-73
2021/01/14 09:23:24;;;;;;;7.07;5.30;;;2.70;23.00;;;;;;4908909;28;20195;-74
2021/01/14 09:25:49;;;;;;;9.50;6.63;;;2.60;6.10;;;;;;4887490;28;20189;-73
2021/01/14 09:28:11;;;;;;;7.67;5.73;;;2.70;7.00;;;;;;4897565;28;20200;-75
2021/01/14 09:30:34;;;;;;;7.47;5.03;;;2.60;7.30;;;;;;4913464;28;20617;-74
2021/01/14 09:33:00;;;;;;;12.20;6.73;;;2.60;8.60;;;;;;4912912;28;20200;-75
2021/01/14 09:35:23;;;;;;;8.27;5.77;;;2.50;11.10;;;;;;4908659;28;20289;-74
2021/01/14 09:37:48;;;;;;;7.33;5.40;;;2.40;11.50;;;;;;4900741;28;20494;-76
2021/01/14 09:40:11;;;;;;;9.37;5.83;;;2.40;11.80;;;;;;4898680;28;20241;-73
2021/01/14 09:42:35;;;;;;;8.70;6.10;;;2.30;16.60;;;;;;4896182;28;20193;-74
2021/01/14 09:44:58;;;;;;;13.53;8.30;;;2.20;20.40;;;;;;4909341;28;20276;-76
2021/01/14 09:47:20;;;;;;;9.70;7.33;;;2.20;21.10;;;;;;4911281;28;20226;-74
2021/01/14 09:49:42;;;;;;;9.47;6.37;;;2.10;25.60;;;;;;4909334;28;20229;-75
2021/01/14 09:52:04;;;;;;;9.50;7.20;;;2.10;30.50;;;;;;4914068;28;20563;-74
2021/01/14 09:54:27;;;;;;;9.93;6.90;;;2.10;29.50;;;;;;4913796;28;20180;-74
2021/01/14 09:56:51;;;;;;;11.27;8.30;;;2.00;30.00;;;;;;4895684;28;20250;-75
2021/01/14 09:59:20;;;;;;;15.03;9.17;;;1.90;30.70;;;;;;4913995;28;20196;-74
2021/01/14 10:01:45;;;;;;;12.30;8.17;;;1.90;33.90;;;;;;4906285;28;20212;-74
2021/01/14 10:04:14;;;;;;;10.37;7.37;;;2.00;38.10;;;;;;4911622;28;20603;-73
2021/01/14 10:06:42;;;;;;;13.40;8.03;;;2.10;37.50;;;;;;4911385;28;20245;-73
2021/01/14 10:09:07;;;;;;;10.93;7.30;;;2.20;36.90;;;;;;4918256;28;20188;-77
2021/01/14 10:11:30;;;;;;;8.80;6.70;;;2.40;40.30;;;;;;4913614;28;20268;-73
2021/01/14 10:13:52;;;;;;;7.07;5.37;;;2.60;39.40;;;;;;4912583;28;20836;-75
2021/01/14 10:16:16;;;;;;;7.20;5.17;;;3.10;26.30;;;;;;4903264;28;20566;-76
2021/01/14 10:18:38;;;;;;;8.33;6.17;;;3.00;23.40;;;;;;4913364;28;20736;-74
2021/01/14 10:21:01;;;;;;;8.20;5.33;;;3.20;14.80;;;;;;4918136;28;20188;-74
2021/01/14 10:23:25;;;;;;;6.70;5.03;;;3.20;13.70;;;;;;4896203;28;20345;-73
2021/01/14 10:25:48;;;;;;;7.63;5.13;;;3.30;4.50;;;;;;4904878;28;20196;-73
2021/01/14 10:28:10;;;;;;;5.27;4.50;;;3.20;1.00;;;;;;4897170;28;20197;-75
2021/01/14 10:30:40;;;;;;;7.30;5.40;;;3.10;1.00;;;;;;4896977;28;20239;-73
2021/01/14 10:33:05;;;;;;;8.00;5.63;;;3.00;1.00;;;;;;4903198;28;20188;-74
2021/01/14 10:35:28;;;;;;;8.00;6.47;;;2.90;1.00;;;;;;4897344;28;20200;-75
2021/01/14 10:38:05;;;;;;;9.07;6.10;;;2.80;1.00;;;;;;4914460;28;20292;-74
2021/01/14 10:40:33;;;;;;;9.43;6.60;;;2.70;1.00;;;;;;4915533;28;20246;-74
2021/01/14 10:42:55;;;;;;;11.60;7.20;;;2.70;2.60;;;;;;4916789;28;20813;-75
2021/01/14 10:45:24;;;;;;;9.13;6.27;;;2.60;7.20;;;;;;4895529;28;20196;-74
2021/01/14 10:47:46;;;;;;;9.90;7.00;;;2.50;4.70;;;;;;4914989;28;20192;-75
2021/01/14 10:50:22;;;;;;;8.17;5.93;;;2.40;1.00;;;;;;4917691;28;20681;-74
2021/01/14 10:52:54;;;;;;;9.70;6.43;;;2.40;1.00;;;;;;4910935;28;20200;-73
2021/01/14 10:55:16;;;;;;;10.87;6.63;;;2.40;4.00;;;;;;4912376;28;20204;-74
2021/01/14 10:57:51;;;;;;;10.80;6.93;;;2.50;14.70;;;;;;4914255;28;20188;-74
2021/01/14 11:00:18;;;;;;;9.60;6.40;;;2.60;19.50;;;;;;4917365;28;20195;-74
2021/01/14 11:02:41;;;;;;;7.93;5.87;;;2.90;14.90;;;;;;4912117;28;20188;-74
2021/01/14 11:05:04;;;;;;;8.33;6.17;;;3.00;15.40;;;;;;4914891;28;20245;-74
2021/01/14 11:07:28;;;;;;;14.90;10.77;;;3.20;7.90;;;;;;4898499;28;20184;-74
2021/01/14 11:09:51;;;;;;;8.80;6.33;;;3.20;6.80;;;;;;4915455;28;20184;-73
2021/01/14 11:12:13;;;;;;;9.20;6.63;;;3.30;1.00;;;;;;4882837;28;20204;-73
2021/01/14 11:14:35;;;;;;;9.13;6.80;;;3.20;1.00;;;;;;4905864;28;20732;-75
2021/01/14 11:16:57;;;;;;;8.27;6.70;;;3.20;1.00;;;;;;4895324;28;20222;-76
2021/01/14 11:19:19;;;;;;;9.97;7.13;;;3.20;1.00;;;;;;4908661;28;20191;-75
2021/01/14 11:21:42;;;;;;;8.27;6.83;;;3.20;1.00;;;;;;4917480;28;20229;-75
2021/01/14 11:24:06;;;;;;;7.53;5.43;;;3.20;1.00;;;;;;4914845;28;20645;-74
2021/01/14 11:26:29;;;;;;;9.57;6.67;;;3.10;1.00;;;;;;4899563;28;20192;-74
2021/01/14 11:28:51;;;;;;;8.00;6.00;;;3.00;1.00;;;;;;4896257;28;20254;-75
2021/01/14 11:31:15;;;;;;;9.10;6.30;;;2.90;1.00;;;;;;4897791;28;20262;-75
2021/01/14 11:33:37;;;;;;;11.40;7.30;;;2.80;1.00;;;;;;4899963;28;20242;-74
2021/01/14 11:35:59;;;;;;;14.33;9.37;;;2.80;1.00;;;;;;4916871;28;20184;-78
2021/01/14 11:38:22;;;;;;;12.10;7.93;;;2.70;1.00;;;;;;4914300;28;20206;-74
2021/01/14 11:40:45;;;;;;;9.10;6.87;;;2.70;1.00;;;;;;4892233;28;20251;-74
2021/01/14 11:43:07;;;;;;;8.50;6.83;;;2.70;8.50;;;;;;4899624;28;20299;-74
2021/01/14 11:45:29;;;;;;;10.47;7.20;;;2.60;1.60;;;;;;4897151;28;20184;-73
2021/01/14 11:47:52;;;;;;;8.57;6.53;;;2.70;3.20;;;;;;4910072;28;20200;-73
2021/01/14 11:50:14;;;;;;;9.40;7.00;;;2.80;10.00;;;;;;4915620;28;20547;-76
2021/01/14 11:52:36;;;;;;;10.77;7.97;;;2.70;4.00;;;;;;4915893;28;20249;-76
2021/01/14 11:54:58;;;;;;;9.30;7.47;;;2.70;1.00;;;;;;4912266;28;20177;-73
2021/01/14 11:57:26;;;;;;;9.87;7.80;;;2.80;1.00;;;;;;4890094;28;20218;-74
2021/01/14 11:59:48;;;;;;;12.97;8.50;;;2.70;1.00;;;;;;4911456;28;20188;-74
2021/01/14 12:02:10;;;;;;;10.63;7.63;;;2.70;1.00;;;;;;4896035;28;20200;-75
2021/01/14 12:04:32;;;;;;;11.27;7.70;;;2.70;2.90;;;;;;4912553;28;20184;-73
2021/01/14 12:06:55;;;;;;;10.70;7.13;;;2.70;4.90;;;;;;4899022;28;20564;-77
2021/01/14 12:09:17;;;;;;;9.90;7.20;;;2.90;1.40;;;;;;4899887;28;20646;-73
2021/01/14 12:11:39;;;;;;;9.43;6.73;;;3.10;1.00;;;;;;4900375;28;20232;-74
2021/01/14 12:14:02;;;;;;;8.67;6.67;;;3.50;9.10;;;;;;4895980;28;20633;-75
2021/01/14 12:16:24;;;;;;;7.10;6.03;;;4.00;1.00;;;;;;4912227;28;20661;-75
2021/01/14 12:18:46;;;;;;;8.30;6.07;;;4.60;3.20;;;;;;4913043;28;20651;-77
2021/01/14 12:21:08;;;;;;;8.20;6.40;;;4.80;1.00;;;;;;4913262;28;20222;-76
2021/01/14 12:23:30;;;;;;;7.27;5.97;;;4.90;1.00;;;;;;4898009;28;20214;-73
2021/01/14 12:25:52;;;;;;;8.17;6.33;;;4.80;1.00;;;;;;4900577;28;20609;-73
2021/01/14 12:28:14;;;;;;;7.63;5.67;;;5.60;1.00;;;;;;4909270;28;20226;-76
2021/01/14 12:30:37;;;;;;;7.60;6.43;;;4.70;1.00;;;;;;4914534;28;20297;-74
2021/01/14 12:32:59;;;;;;;7.63;6.30;;;4.50;1.00;;;;;;4902009;28;20608;-73
2021/01/14 12:35:21;;;;;;;9.00;7.20;;;4.50;1.00;;;;;;4903952;28;20195;-73
2021/01/14 12:37:43;;;;;;;8.70;6.60;;;4.40;1.00;;;;;;4916201;28;20616;-72
2021/01/14 12:40:08;;;;;;;9.37;7.57;;;4.40;1.00;;;;;;4915757;28;20180;-73
2021/01/14 12:42:30;;;;;;;9.10;7.80;;;4.40;1.00;;;;;;4911826;28;20210;-73